Tacloban, Philippines
Current Conditions -  °F | °C
As of 12:00 PM on Monday 22 Dec 2014 (Local Time) from RPVM Reporting Station
Broken Clouds Broken Clouds  
Wind Chill: 84°   Ceiling: 10000
Heat Index: 94°   Visibility: 6mi
Dew Point: 77°   Wind: 14mph
Humidity: 79%   Direction: 360°N
Pressure: 29.83"   Gusts: NA
Location:  11.29°N, 125.02°E
Report Text: RPVM 220400Z 36012KT 9999 FEW020 BKN100 29/25 Q1010 RMK A2983
Loading
Personal Weather Stations






























Interactive Weather Map New forecast layout! Learn more

10-Day Weather Forecast

Advertisements
Track Severe Weather on mobile